createdAt,value
2019-05-23T00:01:38.006Z,0.70
2019-05-23T00:17:05.383Z,1.15
2019-05-23T00:32:34.729Z,0.30
2019-05-23T01:02:59.154Z,0.40
2019-05-23T01:18:12.506Z,0.35
2019-05-23T01:33:26.319Z,0.30
2019-05-23T01:48:35.085Z,0.30
2019-05-23T02:03:45.889Z,0.50
2019-05-23T02:18:54.269Z,0.45
2019-05-23T02:34:04.700Z,0.40
2019-05-23T02:49:18.229Z,0.30
2019-05-23T03:04:31.970Z,0.30
2019-05-23T03:20:01.813Z,0.45
2019-05-23T03:35:15.564Z,0.20
2019-05-23T03:50:25.365Z,0.40
2019-05-23T04:05:36.533Z,0.30
2019-05-23T04:20:45.587Z,0.50
2019-05-23T04:35:57.419Z,0.40
2019-05-23T04:51:07.847Z,0.50
2019-05-23T05:06:19.078Z,0.30
2019-05-23T05:21:28.128Z,0.80
2019-05-23T05:36:35.193Z,0.70
2019-05-23T06:06:57.231Z,0.50
2019-05-23T06:22:08.097Z,0.30
2019-05-23T06:37:18.059Z,0.40
2019-05-23T06:52:28.551Z,0.23
2019-05-23T07:07:38.435Z,0.28
2019-05-23T07:22:48.713Z,0.55
2019-05-23T07:37:57.871Z,0.50
2019-05-23T07:53:08.083Z,0.40
2019-05-23T08:08:17.037Z,0.42
2019-05-23T08:23:24.433Z,0.50
2019-05-23T08:38:34.087Z,0.33
2019-05-23T08:53:41.998Z,0.30
2019-05-23T09:08:53.041Z,0.40
2019-05-23T09:24:01.628Z,0.40
2019-05-23T09:39:14.650Z,0.30
2019-05-23T09:54:22.833Z,0.37
2019-05-23T10:09:36.100Z,0.50
2019-05-23T10:24:44.168Z,0.50
2019-05-23T10:40:02.014Z,0.47
2019-05-23T10:55:10.874Z,1.10
2019-05-23T11:10:20.645Z,0.47
2019-05-23T11:25:31.275Z,1.20
2019-05-23T11:40:38.733Z,0.47
2019-05-23T11:55:53.423Z,1.22
2019-05-23T12:10:56.325Z,0.65
2019-05-23T12:26:09.463Z,0.50
2019-05-23T12:41:20.524Z,0.60
2019-05-23T12:56:32.550Z,0.90
2019-05-23T13:11:42.038Z,0.45
2019-05-23T13:26:53.067Z,0.88
2019-05-23T13:42:02.728Z,1.00
2019-05-23T13:57:11.985Z,1.30
2019-05-23T14:12:22.168Z,1.30
2019-05-23T14:27:44.290Z,2.40
2019-05-23T14:43:02.556Z,2.35
2019-05-23T14:58:11.867Z,1.00
2019-05-23T15:13:20.777Z,1.85
2019-05-23T15:28:28.578Z,1.27
2019-05-23T15:43:37.702Z,1.50
2019-05-23T15:58:52.511Z,1.40
2019-05-23T16:14:02.259Z,1.72
2019-05-23T16:29:10.996Z,1.32
2019-05-23T16:44:21.388Z,2.00
2019-05-23T16:59:40.391Z,1.50
2019-05-23T17:14:51.758Z,1.82
2019-05-23T17:29:59.903Z,1.62
2019-05-23T17:45:17.765Z,2.33
2019-05-23T18:00:27.724Z,2.05
2019-05-23T18:15:37.054Z,2.00
2019-05-23T18:30:58.694Z,2.10
2019-05-23T18:46:10.959Z,2.15
2019-05-23T19:01:19.734Z,2.92
2019-05-23T19:16:26.987Z,2.30
2019-05-23T19:31:37.633Z,2.40
2019-05-23T19:46:45.509Z,1.72
2019-05-23T20:01:57.459Z,1.98
2019-05-23T20:17:07.045Z,2.10
2019-05-23T20:32:14.985Z,2.92
2019-05-23T20:47:22.709Z,3.27
2019-05-23T21:02:33.709Z,1.92
2019-05-23T21:17:42.674Z,1.42
2019-05-23T21:32:49.688Z,1.75
2019-05-23T21:48:00.044Z,1.45
2019-05-23T22:03:09.181Z,1.05
2019-05-23T22:18:17.519Z,1.17
2019-05-23T22:33:41.718Z,1.40
2019-05-23T22:48:50.377Z,1.30
2019-05-23T23:04:00.594Z,1.75
2019-05-23T23:19:08.446Z,1.77
2019-05-23T23:34:16.737Z,1.70
2019-05-23T23:49:42.257Z,2.33
